Sea Dolphin C — V7XL9 — position and weather

sailwx.info

Track history (hours):
 
Tides and Currents Weather Stations Pressure Air Temp Water Temp Dewpoint Dewpoint Depression Visibility Wind Speed Wind Dir Waves Ship Positions

Sea Dolphin C

Last reported at 2016-Dec-31 04:33 UTC. Time now 2017-Jan-22 01:42 UTC.
Position N 37°50' E 121°47'.
Warning: this ship's position is 21 days out of date.

Length 181 m; draft 9.5 m.

Type: Cargo ship. MMSI: 538004513.

Date/timePositionNaut miles runAvg speedWind from/ knotsBaromVisibWave heightAir tempDewpointWater temp
2016-Dec-31 04:33N 37°50' E 121°47'1212.2
2016-Dec-31 03:33N 37°52' E 121°32'1212.1
2016-Dec-31 02:33N 37°55' E 121°17'1212.2
2016-Dec-31 01:33N 37°58' E 121°01'28 0.6
2016-Dec-29 02:12N 38°06' E 120°28'3611.5
2016-Dec-28 23:04N 37°57' E 121°12'611.5
2016-Dec-28 22:33N 37°56' E 121°20'1211.9
2016-Dec-28 21:33N 37°54' E 121°35'1212.1
2016-Dec-28 20:33N 37°52' E 121°50'  
2016-Dec-23 09:12N 35°16' E 120°01'1012.4
2016-Dec-23 08:25N 35°18' E 119°50'1011.4
2016-Dec-23 07:33N 35°18' E 119°38'6 4.3
2016-Dec-23 06:16N 35°21' E 119°32'0 0.0
2016-Dec-23 03:10N 35°21' E 119°32'0 0.0
2016-Dec-23 02:28N 35°21' E 119°32'0 0.0
2016-Dec-23 01:22N 35°21' E 119°32'0 0.0
2016-Dec-23 00:28N 35°21' E 119°32'0 0.0
2016-Dec-22 23:28N 35°21' E 119°32'0 0.0
2016-Dec-22 22:28N 35°21' E 119°32'0 0.0
2016-Dec-22 21:28N 35°21' E 119°32'0 0.0
2016-Dec-22 20:28N 35°21' E 119°32'0 0.0
2016-Dec-22 19:28N 35°21' E 119°32'0 0.0
2016-Dec-22 18:28N 35°21' E 119°32'0 0.0
2016-Dec-22 17:22N 35°21' E 119°32'0 0.0
2016-Dec-22 16:28N 35°21' E 119°32'0 0.0
2016-Dec-22 14:33N 35°21' E 119°32'0 0.0
2016-Dec-22 13:28N 35°21' E 119°32'0 0.0
2016-Dec-22 12:15N 35°21' E 119°32'0 0.0
2016-Dec-22 11:16N 35°21' E 119°32'0 0.0
2016-Dec-22 10:27N 35°21' E 119°32'0 0.0
2016-Dec-22 09:21N 35°21' E 119°32'0 0.0
2016-Dec-22 08:33N 35°21' E 119°32'0 0.0
2016-Dec-22 07:33N 35°21' E 119°32'0 0.0
2016-Dec-22 06:33N 35°21' E 119°32'0 0.0
2016-Dec-22 05:33N 35°21' E 119°32'0 0.0
2016-Dec-22 04:33N 35°21' E 119°32'0 0.0
2016-Dec-22 03:33N 35°21' E 119°32'0 0.0
2016-Dec-22 02:33N 35°21' E 119°32'0 0.0
2016-Dec-22 01:27N 35°21' E 119°32'0 0.0
2016-Dec-22 00:33N 35°21' E 119°32'0 0.0
2016-Dec-21 23:21N 35°21' E 119°32'0 0.0
2016-Dec-21 22:27N 35°21' E 119°32'0 0.0
2016-Dec-21 21:33N 35°21' E 119°32'0 0.0
2016-Dec-21 20:33N 35°21' E 119°32'0 0.0
2016-Dec-21 19:33N 35°21' E 119°32'0 0.0
2016-Dec-21 18:34N 35°21' E 119°32'0 0.0
2016-Dec-21 17:34N 35°21' E 119°32'0 0.0
2016-Dec-21 16:28N 35°21' E 119°32'0 0.0
2016-Dec-21 15:34N 35°21' E 119°32'0 0.0
2016-Dec-21 14:34N 35°21' E 119°32'0 0.0
2016-Dec-21 13:33N 35°21' E 119°32'6 6.4
2016-Dec-21 12:33N 35°18' E 119°39'2 1.7
2016-Dec-21 11:33N 35°19' E 119°41'0 0.0
2016-Dec-21 10:29N 35°19' E 119°41'0 0.0
2016-Dec-21 09:29N 35°19' E 119°41'0 0.0
2016-Dec-21 08:23N 35°19' E 119°41'0 0.0
2016-Dec-21 07:11N 35°19' E 119°41'0 0.0
2016-Dec-21 06:29N 35°19' E 119°41'0 0.0
2016-Dec-21 05:29N 35°19' E 119°41'  
Track history (hours):
 
Tides and Currents Weather Stations Pressure Air Temp Water Temp Dewpoint Dewpoint Depression Visibility Wind Speed Wind Dir Waves Ship Positions

Sea Dolphin C

Last reported at 2016-Dec-31 04:33 UTC. Time now 2017-Jan-22 01:42 UTC.
Position N 37°50' E 121°47'.
Warning: this ship's position is 21 days out of date.

Length 181 m; draft 9.5 m.

Type: Cargo ship. MMSI: 538004513.

Date/timePositionNaut miles runAvg speedWind from/ knotsBaromVisibWave heightAir tempDewpointWater temp
2016-Dec-31 04:33N 37°50' E 121°47'1212.2
2016-Dec-31 03:33N 37°52' E 121°32'1212.1
2016-Dec-31 02:33N 37°55' E 121°17'1212.2
2016-Dec-31 01:33N 37°58' E 121°01'28 0.6
2016-Dec-29 02:12N 38°06' E 120°28'3611.5
2016-Dec-28 23:04N 37°57' E 121°12'611.5
2016-Dec-28 22:33N 37°56' E 121°20'1211.9
2016-Dec-28 21:33N 37°54' E 121°35'1212.1
2016-Dec-28 20:33N 37°52' E 121°50'  
2016-Dec-23 09:12N 35°16' E 120°01'1012.4
2016-Dec-23 08:25N 35°18' E 119°50'1011.4
2016-Dec-23 07:33N 35°18' E 119°38'6 4.3
2016-Dec-23 06:16N 35°21' E 119°32'0 0.0
2016-Dec-23 03:10N 35°21' E 119°32'0 0.0
2016-Dec-23 02:28N 35°21' E 119°32'0 0.0
2016-Dec-23 01:22N 35°21' E 119°32'0 0.0
2016-Dec-23 00:28N 35°21' E 119°32'0 0.0
2016-Dec-22 23:28N 35°21' E 119°32'0 0.0
2016-Dec-22 22:28N 35°21' E 119°32'0 0.0
2016-Dec-22 21:28N 35°21' E 119°32'0 0.0
2016-Dec-22 20:28N 35°21' E 119°32'0 0.0
2016-Dec-22 19:28N 35°21' E 119°32'0 0.0
2016-Dec-22 18:28N 35°21' E 119°32'0 0.0
2016-Dec-22 17:22N 35°21' E 119°32'0 0.0
2016-Dec-22 16:28N 35°21' E 119°32'0 0.0
2016-Dec-22 14:33N 35°21' E 119°32'0 0.0
2016-Dec-22 13:28N 35°21' E 119°32'0 0.0
2016-Dec-22 12:15N 35°21' E 119°32'0 0.0
2016-Dec-22 11:16N 35°21' E 119°32'0 0.0
2016-Dec-22 10:27N 35°21' E 119°32'0 0.0
2016-Dec-22 09:21N 35°21' E 119°32'0 0.0
2016-Dec-22 08:33N 35°21' E 119°32'0 0.0
2016-Dec-22 07:33N 35°21' E 119°32'0 0.0
2016-Dec-22 06:33N 35°21' E 119°32'0 0.0
2016-Dec-22 05:33N 35°21' E 119°32'0 0.0
2016-Dec-22 04:33N 35°21' E 119°32'0 0.0
2016-Dec-22 03:33N 35°21' E 119°32'0 0.0
2016-Dec-22 02:33N 35°21' E 119°32'0 0.0
2016-Dec-22 01:27N 35°21' E 119°32'0 0.0
2016-Dec-22 00:33N 35°21' E 119°32'0 0.0
2016-Dec-21 23:21N 35°21' E 119°32'0 0.0
2016-Dec-21 22:27N 35°21' E 119°32'0 0.0
2016-Dec-21 21:33N 35°21' E 119°32'0 0.0
2016-Dec-21 20:33N 35°21' E 119°32'0 0.0
2016-Dec-21 19:33N 35°21' E 119°32'0 0.0
2016-Dec-21 18:34N 35°21' E 119°32'0 0.0
2016-Dec-21 17:34N 35°21' E 119°32'0 0.0
2016-Dec-21 16:28N 35°21' E 119°32'0 0.0
2016-Dec-21 15:34N 35°21' E 119°32'0 0.0
2016-Dec-21 14:34N 35°21' E 119°32'0 0.0
2016-Dec-21 13:33N 35°21' E 119°32'6 6.4
2016-Dec-21 12:33N 35°18' E 119°39'2 1.7
2016-Dec-21 11:33N 35°19' E 119°41'0 0.0
2016-Dec-21 10:29N 35°19' E 119°41'0 0.0
2016-Dec-21 09:29N 35°19' E 119°41'0 0.0
2016-Dec-21 08:23N 35°19' E 119°41'0 0.0
2016-Dec-21 07:11N 35°19' E 119°41'0 0.0
2016-Dec-21 06:29N 35°19' E 119°41'0 0.0
2016-Dec-21 05:29N 35°19' E 119°41'  

Dump ship's entire track history